sensor_id;sensor_type;location;lat;lon;timestamp;temperature;humidity
947;DHT22;460;48.734;9.152;2022-09-20T00:01:26;8.30;99.90
947;DHT22;460;48.734;9.152;2022-09-20T00:03:55;8.30;99.90
947;DHT22;460;48.734;9.152;2022-09-20T00:06:23;8.20;99.90
947;DHT22;460;48.734;9.152;2022-09-20T00:08:51;8.40;99.90
947;DHT22;460;48.734;9.152;2022-09-20T00:11:19;8.30;99.90
947;DHT22;460;48.734;9.152;2022-09-20T00:13:49;8.30;99.90
947;DHT22;460;48.734;9.152;2022-09-20T00:16:17;8.40;99.90
947;DHT22;460;48.734;9.152;2022-09-20T00:18:48;8.40;99.90
947;DHT22;460;48.734;9.152;2022-09-20T00:21:16;8.40;99.90
947;DHT22;460;48.734;9.152;2022-09-20T00:23:44;8.40;99.90
947;DHT22;460;48.734;9.152;2022-09-20T00:26:11;8.10;99.90
947;DHT22;460;48.734;9.152;2022-09-20T00:28:39;8.20;99.90
947;DHT22;460;48.734;9.152;2022-09-20T00:31:06;8.30;99.90
947;DHT22;460;48.734;9.152;2022-09-20T00:33:33;8.20;99.90
947;DHT22;460;48.734;9.152;2022-09-20T00:36:19;8.10;99.90
947;DHT22;460;48.734;9.152;2022-09-20T00:38:46;8.20;99.90
947;DHT22;460;48.734;9.152;2022-09-20T00:41:13;8.20;99.90
947;DHT22;460;48.734;9.152;2022-09-20T00:43:41;8.20;99.90
947;DHT22;460;48.734;9.152;2022-09-20T00:46:19;8.20;99.90
947;DHT22;460;48.734;9.152;2022-09-20T00:48:47;8.20;99.90
947;DHT22;460;48.734;9.152;2022-09-20T00:51:18;8.20;99.90
947;DHT22;460;48.734;9.152;2022-09-20T00:53:48;8.20;99.90
947;DHT22;460;48.734;9.152;2022-09-20T00:56:20;8.20;99.90
947;DHT22;460;48.734;9.152;2022-09-20T00:58:51;8.00;99.90
947;DHT22;460;48.734;9.152;2022-09-20T01:01:20;8.00;99.90
947;DHT22;460;48.734;9.152;2022-09-20T01:03:47;8.00;99.90
947;DHT22;460;48.734;9.152;2022-09-20T01:06:15;8.00;99.90
947;DHT22;460;48.734;9.152;2022-09-20T01:08:46;8.00;99.90
947;DHT22;460;48.734;9.152;2022-09-20T01:11:16;7.90;99.90
947;DHT22;460;48.734;9.152;2022-09-20T01:13:43;7.90;99.90
947;DHT22;460;48.734;9.152;2022-09-20T01:16:11;7.90;99.90
947;DHT22;460;48.734;9.152;2022-09-20T01:18:40;7.90;99.90
947;DHT22;460;48.734;9.152;2022-09-20T01:21:09;8.00;99.90
947;DHT22;460;48.734;9.152;2022-09-20T01:23:46;8.00;99.90
947;DHT22;460;48.734;9.152;2022-09-20T01:26:40;8.00;99.90
947;DHT22;460;48.734;9.152;2022-09-20T01:29:21;7.90;99.90
947;DHT22;460;48.734;9.152;2022-09-20T01:31:54;7.90;99.90
947;DHT22;460;48.734;9.152;2022-09-20T01:34:27;7.90;99.90
947;DHT22;460;48.734;9.152;2022-09-20T01:37:02;7.90;99.90
947;DHT22;460;48.734;9.152;2022-09-20T01:39:37;8.00;99.90
947;DHT22;460;48.734;9.152;2022-09-20T01:42:10;8.10;99.90
947;DHT22;460;48.734;9.152;2022-09-20T01:44:44;8.10;99.90
947;DHT22;460;48.734;9.152;2022-09-20T01:47:23;8.10;99.90
947;DHT22;460;48.734;9.152;2022-09-20T01:49:58;8.30;99.90
947;DHT22;460;48.734;9.152;2022-09-20T01:55:53;8.00;99.90
947;DHT22;460;48.734;9.152;2022-09-20T02:02:08;8.00;99.90
947;DHT22;460;48.734;9.152;2022-09-20T02:05:03;7.90;99.90
947;DHT22;460;48.734;9.152;2022-09-20T02:11:01;8.00;99.90
947;DHT22;460;48.734;9.152;2022-09-20T02:13:31;8.00;99.90
947;DHT22;460;48.734;9.152;2022-09-20T02:16:21;8.50;99.90
947;DHT22;460;48.734;9.152;2022-09-20T02:19:17;7.90;99.90
947;DHT22;460;48.734;9.152;2022-09-20T02:21:52;8.00;99.90
947;DHT22;460;48.734;9.152;2022-09-20T02:24:28;8.10;99.90
947;DHT22;460;48.734;9.152;2022-09-20T02:27:06;8.20;99.90
947;DHT22;460;48.734;9.152;2022-09-20T02:29:44;8.20;99.90
947;DHT22;460;48.734;9.152;2022-09-20T02:32:26;8.30;99.90
947;DHT22;460;48.734;9.152;2022-09-20T02:37:59;8.30;99.90
947;DHT22;460;48.734;9.152;2022-09-20T02:40:50;8.30;99.90
947;DHT22;460;48.734;9.152;2022-09-20T02:43:29;8.30;99.90
947;DHT22;460;48.734;9.152;2022-09-20T02:46:00;8.30;99.90
947;DHT22;460;48.734;9.152;2022-09-20T02:48:35;8.40;99.90
947;DHT22;460;48.734;9.152;2022-09-20T02:51:13;8.40;99.90
947;DHT22;460;48.734;9.152;2022-09-20T02:53:50;8.40;99.90
947;DHT22;460;48.734;9.152;2022-09-20T02:56:26;8.20;99.90
947;DHT22;460;48.734;9.152;2022-09-20T02:59:02;8.50;99.90
947;DHT22;460;48.734;9.152;2022-09-20T03:01:39;8.60;99.90
947;DHT22;460;48.734;9.152;2022-09-20T03:04:20;8.40;99.90
947;DHT22;460;48.734;9.152;2022-09-20T03:06:54;8.50;99.90
947;DHT22;460;48.734;9.152;2022-09-20T03:09:29;8.60;99.90
947;DHT22;460;48.734;9.152;2022-09-20T03:12:03;7.70;99.90
947;DHT22;460;48.734;9.152;2022-09-20T03:14:36;8.60;99.90
947;DHT22;460;48.734;9.152;2022-09-20T03:17:15;8.60;99.90
947;DHT22;460;48.734;9.152;2022-09-20T03:19:58;8.60;99.90
947;DHT22;460;48.734;9.152;2022-09-20T03:22:38;8.50;99.90
947;DHT22;460;48.734;9.152;2022-09-20T03:25:32;8.30;99.90
947;DHT22;460;48.734;9.152;2022-09-20T03:28:10;8.10;99.90
947;DHT22;460;48.734;9.152;2022-09-20T03:30:47;8.40;99.90
947;DHT22;460;48.734;9.152;2022-09-20T03:33:22;8.40;99.90
947;DHT22;460;48.734;9.152;2022-09-20T03:36:00;8.40;99.90
947;DHT22;460;48.734;9.152;2022-09-20T03:38:41;8.40;99.90
947;DHT22;460;48.734;9.152;2022-09-20T03:41:24;8.40;99.90
947;DHT22;460;48.734;9.152;2022-09-20T03:44:22;8.40;99.90
947;DHT22;460;48.734;9.152;2022-09-20T03:47:00;8.40;99.90
947;DHT22;460;48.734;9.152;2022-09-20T03:50:00;8.40;99.90
947;DHT22;460;48.734;9.152;2022-09-20T03:52:45;8.40;99.90
947;DHT22;460;48.734;9.152;2022-09-20T03:55:48;8.40;99.90
947;DHT22;460;48.734;9.152;2022-09-20T03:58:33;8.40;99.90
947;DHT22;460;48.734;9.152;2022-09-20T04:01:23;8.40;99.90
947;DHT22;460;48.734;9.152;2022-09-20T04:04:05;8.50;99.90
947;DHT22;460;48.734;9.152;2022-09-20T04:06:49;8.50;99.90
947;DHT22;460;48.734;9.152;2022-09-20T04:09:49;8.20;99.90
947;DHT22;460;48.734;9.152;2022-09-20T04:12:28;8.50;99.90
947;DHT22;460;48.734;9.152;2022-09-20T04:15:04;8.40;99.90
947;DHT22;460;48.734;9.152;2022-09-20T04:17:40;8.50;99.90
947;DHT22;460;48.734;9.152;2022-09-20T04:20:16;8.90;99.90
947;DHT22;460;48.734;9.152;2022-09-20T04:22:46;8.50;99.90
947;DHT22;460;48.734;9.152;2022-09-20T04:25:18;8.40;99.90
947;DHT22;460;48.734;9.152;2022-09-20T04:27:49;8.50;99.90
947;DHT22;460;48.734;9.152;2022-09-20T04:30:20;8.50;99.90
947;DHT22;460;48.734;9.152;2022-09-20T04:32:50;8.50;99.90
947;DHT22;460;48.734;9.152;2022-09-20T04:35:33;8.60;99.90
947;DHT22;460;48.734;9.152;2022-09-20T04:38:21;8.60;99.90
947;DHT22;460;48.734;9.152;2022-09-20T04:41:15;8.60;99.90
947;DHT22;460;48.734;9.152;2022-09-20T04:44:05;8.40;99.90
947;DHT22;460;48.734;9.152;2022-09-20T04:53:07;8.60;99.90
947;DHT22;460;48.734;9.152;2022-09-20T04:55:48;8.60;99.90
947;DHT22;460;48.734;9.152;2022-09-20T04:58:37;8.50;99.90
947;DHT22;460;48.734;9.152;2022-09-20T05:04:41;8.70;99.90
947;DHT22;460;48.734;9.152;2022-09-20T05:10:50;8.70;99.90
947;DHT22;460;48.734;9.152;2022-09-20T05:13:31;8.70;99.90
947;DHT22;460;48.734;9.152;2022-09-20T05:16:04;8.70;99.90
947;DHT22;460;48.734;9.152;2022-09-20T05:19:15;8.70;99.90
947;DHT22;460;48.734;9.152;2022-09-20T05:27:58;8.70;99.90
947;DHT22;460;48.734;9.152;2022-09-20T05:30:31;8.70;99.90
947;DHT22;460;48.734;9.152;2022-09-20T05:33:09;8.70;99.90
947;DHT22;460;48.734;9.152;2022-09-20T05:35:44;8.90;99.90
947;DHT22;460;48.734;9.152;2022-09-20T05:38:17;8.90;99.90
947;DHT22;460;48.734;9.152;2022-09-20T05:41:02;8.90;99.90
947;DHT22;460;48.734;9.152;2022-09-20T05:43:31;8.90;99.90
947;DHT22;460;48.734;9.152;2022-09-20T05:46:13;8.90;99.90
947;DHT22;460;48.734;9.152;2022-09-20T05:48:51;8.90;99.90
947;DHT22;460;48.734;9.152;2022-09-20T05:51:30;8.90;99.90
947;DHT22;460;48.734;9.152;2022-09-20T05:54:19;8.80;99.90
947;DHT22;460;48.734;9.152;2022-09-20T05:56:54;8.80;99.90
947;DHT22;460;48.734;9.152;2022-09-20T05:59:29;8.80;99.90
947;DHT22;460;48.734;9.152;2022-09-20T06:02:11;8.90;99.90
947;DHT22;460;48.734;9.152;2022-09-20T06:04:48;8.90;99.90
947;DHT22;460;48.734;9.152;2022-09-20T06:07:23;9.00;99.90
947;DHT22;460;48.734;9.152;2022-09-20T06:13:03;9.00;99.90
947;DHT22;460;48.734;9.152;2022-09-20T06:15:41;9.00;99.90
947;DHT22;460;48.734;9.152;2022-09-20T06:18:20;9.10;99.90
947;DHT22;460;48.734;9.152;2022-09-20T06:20:55;9.10;99.90
947;DHT22;460;48.734;9.152;2022-09-20T06:23:24;9.20;99.90
947;DHT22;460;48.734;9.152;2022-09-20T06:25:55;9.20;99.90
947;DHT22;460;48.734;9.152;2022-09-20T06:28:25;9.20;99.90
947;DHT22;460;48.734;9.152;2022-09-20T06:30:54;9.20;99.90
947;DHT22;460;48.734;9.152;2022-09-20T06:33:22;9.30;99.90
947;DHT22;460;48.734;9.152;2022-09-20T06:35:55;9.40;99.90
947;DHT22;460;48.734;9.152;2022-09-20T06:38:42;10.00;99.90
947;DHT22;460;48.734;9.152;2022-09-20T06:41:32;10.20;99.90
947;DHT22;460;48.734;9.152;2022-09-20T06:44:00;9.70;99.90
947;DHT22;460;48.734;9.152;2022-09-20T06:46:29;9.60;99.90
947;DHT22;460;48.734;9.152;2022-09-20T06:48:57;9.60;99.90
947;DHT22;460;48.734;9.152;2022-09-20T06:51:25;9.60;99.90
947;DHT22;460;48.734;9.152;2022-09-20T06:53:54;9.70;99.90
947;DHT22;460;48.734;9.152;2022-09-20T06:56:24;9.70;99.90
947;DHT22;460;48.734;9.152;2022-09-20T06:58:52;9.70;99.90
947;DHT22;460;48.734;9.152;2022-09-20T07:01:19;9.90;99.90
947;DHT22;460;48.734;9.152;2022-09-20T07:03:46;9.70;99.90
947;DHT22;460;48.734;9.152;2022-09-20T07:06:13;9.70;99.90
947;DHT22;460;48.734;9.152;2022-09-20T07:08:41;9.70;99.90
947;DHT22;460;48.734;9.152;2022-09-20T07:11:12;9.70;99.90
947;DHT22;460;48.734;9.152;2022-09-20T07:13:40;9.80;99.90
947;DHT22;460;48.734;9.152;2022-09-20T07:16:11;9.80;99.90
947;DHT22;460;48.734;9.152;2022-09-20T07:18:38;9.80;99.90
947;DHT22;460;48.734;9.152;2022-09-20T07:21:05;9.90;99.90
947;DHT22;460;48.734;9.152;2022-09-20T07:23:32;10.00;99.90
947;DHT22;460;48.734;9.152;2022-09-20T07:25:59;10.10;99.90
947;DHT22;460;48.734;9.152;2022-09-20T07:28:26;10.20;99.90
947;DHT22;460;48.734;9.152;2022-09-20T07:30:53;10.30;99.90
947;DHT22;460;48.734;9.152;2022-09-20T07:33:22;10.30;99.90
947;DHT22;460;48.734;9.152;2022-09-20T07:35:50;10.40;99.90
947;DHT22;460;48.734;9.152;2022-09-20T07:38:18;10.30;99.90
947;DHT22;460;48.734;9.152;2022-09-20T07:40:45;10.10;99.90
947;DHT22;460;48.734;9.152;2022-09-20T07:43:12;10.60;99.90
947;DHT22;460;48.734;9.152;2022-09-20T07:45:39;10.80;99.90
947;DHT22;460;48.734;9.152;2022-09-20T07:48:06;10.70;99.90
947;DHT22;460;48.734;9.152;2022-09-20T07:50:34;10.80;99.90
947;DHT22;460;48.734;9.152;2022-09-20T07:53:01;10.70;99.90
947;DHT22;460;48.734;9.152;2022-09-20T07:55:29;10.70;99.90
947;DHT22;460;48.734;9.152;2022-09-20T07:57:56;10.60;99.90
947;DHT22;460;48.734;9.152;2022-09-20T08:00:23;10.70;99.90
947;DHT22;460;48.734;9.152;2022-09-20T08:02:57;10.60;99.90
947;DHT22;460;48.734;9.152;2022-09-20T08:05:25;10.80;99.90
947;DHT22;460;48.734;9.152;2022-09-20T08:07:54;10.70;99.90
947;DHT22;460;48.734;9.152;2022-09-20T08:10:21;11.00;99.90
947;DHT22;460;48.734;9.152;2022-09-20T08:12:49;10.60;99.90
947;DHT22;460;48.734;9.152;2022-09-20T08:15:16;10.90;99.90
947;DHT22;460;48.734;9.152;2022-09-20T08:17:46;10.70;99.90
947;DHT22;460;48.734;9.152;2022-09-20T08:20:13;10.90;99.90
947;DHT22;460;48.734;9.152;2022-09-20T08:22:40;11.00;99.90
947;DHT22;460;48.734;9.152;2022-09-20T08:25:09;10.90;99.90
947;DHT22;460;48.734;9.152;2022-09-20T08:27:36;10.70;99.90
947;DHT22;460;48.734;9.152;2022-09-20T08:30:03;10.70;99.90
947;DHT22;460;48.734;9.152;2022-09-20T08:32:31;10.70;99.90
947;DHT22;460;48.734;9.152;2022-09-20T08:34:58;10.70;99.90
947;DHT22;460;48.734;9.152;2022-09-20T08:37:25;11.00;99.90
947;DHT22;460;48.734;9.152;2022-09-20T08:39:52;10.80;99.90
947;DHT22;460;48.734;9.152;2022-09-20T08:42:23;10.90;99.90
947;DHT22;460;48.734;9.152;2022-09-20T08:44:56;11.10;99.90
947;DHT22;460;48.734;9.152;2022-09-20T08:47:26;11.10;99.90
947;DHT22;460;48.734;9.152;2022-09-20T08:49:54;11.50;99.90
947;DHT22;460;48.734;9.152;2022-09-20T08:52:26;11.50;99.90
947;DHT22;460;48.734;9.152;2022-09-20T08:54:55;11.50;99.90
947;DHT22;460;48.734;9.152;2022-09-20T08:57:27;11.50;99.90
947;DHT22;460;48.734;9.152;2022-09-20T08:59:57;11.50;99.90
947;DHT22;460;48.734;9.152;2022-09-20T09:02:28;11.50;99.90
947;DHT22;460;48.734;9.152;2022-09-20T09:04:56;11.40;99.90
947;DHT22;460;48.734;9.152;2022-09-20T09:07:24;11.60;99.90
947;DHT22;460;48.734;9.152;2022-09-20T09:09:54;11.50;99.90
947;DHT22;460;48.734;9.152;2022-09-20T09:12:42;11.30;99.90
947;DHT22;460;48.734;9.152;2022-09-20T09:15:30;11.60;99.80
947;DHT22;460;48.734;9.152;2022-09-20T09:17:58;11.60;99.90
947;DHT22;460;48.734;9.152;2022-09-20T09:20:25;11.70;99.90
947;DHT22;460;48.734;9.152;2022-09-20T09:22:59;11.80;99.90
947;DHT22;460;48.734;9.152;2022-09-20T09:25:28;11.60;99.40
947;DHT22;460;48.734;9.152;2022-09-20T09:28:10;11.50;99.50
947;DHT22;460;48.734;9.152;2022-09-20T09:30:47;11.60;99.90
947;DHT22;460;48.734;9.152;2022-09-20T09:33:25;11.80;99.90
947;DHT22;460;48.734;9.152;2022-09-20T09:36:03;11.80;99.90
947;DHT22;460;48.734;9.152;2022-09-20T09:38:36;11.80;98.70
947;DHT22;460;48.734;9.152;2022-09-20T09:41:05;12.00;99.00
947;DHT22;460;48.734;9.152;2022-09-20T09:43:35;12.30;97.00
947;DHT22;460;48.734;9.152;2022-09-20T09:46:21;12.30;97.30
947;DHT22;460;48.734;9.152;2022-09-20T09:49:07;12.50;97.40
947;DHT22;460;48.734;9.152;2022-09-20T09:51:38;12.70;98.40
947;DHT22;460;48.734;9.152;2022-09-20T09:54:15;12.90;97.50
947;DHT22;460;48.734;9.152;2022-09-20T09:56:55;13.00;98.00
947;DHT22;460;48.734;9.152;2022-09-20T09:59:54;12.90;98.40
947;DHT22;460;48.734;9.152;2022-09-20T10:05:39;12.60;97.40
947;DHT22;460;48.734;9.152;2022-09-20T10:08:21;12.60;98.00
947;DHT22;460;48.734;9.152;2022-09-20T10:11:08;12.20;99.70
947;DHT22;460;48.734;9.152;2022-09-20T10:13:49;12.20;98.40
947;DHT22;460;48.734;9.152;2022-09-20T10:16:26;12.30;98.10
947;DHT22;460;48.734;9.152;2022-09-20T10:19:08;12.30;97.90
947;DHT22;460;48.734;9.152;2022-09-20T10:21:52;12.30;98.10
947;DHT22;460;48.734;9.152;2022-09-20T10:24:39;12.10;98.10
947;DHT22;460;48.734;9.152;2022-09-20T10:27:26;12.10;97.30
947;DHT22;460;48.734;9.152;2022-09-20T10:30:07;12.10;96.70
947;DHT22;460;48.734;9.152;2022-09-20T10:33:02;12.30;97.40
947;DHT22;460;48.734;9.152;2022-09-20T10:35:51;12.40;98.20
947;DHT22;460;48.734;9.152;2022-09-20T10:38:26;12.40;97.50
947;DHT22;460;48.734;9.152;2022-09-20T10:41:13;12.60;98.00
947;DHT22;460;48.734;9.152;2022-09-20T10:44:26;12.80;98.70
947;DHT22;460;48.734;9.152;2022-09-20T10:47:05;12.80;96.90
947;DHT22;460;48.734;9.152;2022-09-20T10:49:45;12.80;96.70
947;DHT22;460;48.734;9.152;2022-09-20T10:52:36;12.80;95.70
947;DHT22;460;48.734;9.152;2022-09-20T10:55:29;12.60;95.60
947;DHT22;460;48.734;9.152;2022-09-20T10:58:37;12.70;96.30
947;DHT22;460;48.734;9.152;2022-09-20T11:01:10;12.50;97.30
947;DHT22;460;48.734;9.152;2022-09-20T11:03:54;12.30;95.80
947;DHT22;460;48.734;9.152;2022-09-20T11:06:36;12.40;95.90
947;DHT22;460;48.734;9.152;2022-09-20T11:09:06;12.40;95.30
947;DHT22;460;48.734;9.152;2022-09-20T11:11:36;12.40;95.40
947;DHT22;460;48.734;9.152;2022-09-20T11:14:09;12.40;95.30
947;DHT22;460;48.734;9.152;2022-09-20T11:16:39;12.40;97.10
947;DHT22;460;48.734;9.152;2022-09-20T11:19:12;12.40;95.70
947;DHT22;460;48.734;9.152;2022-09-20T11:21:47;12.90;96.90
947;DHT22;460;48.734;9.152;2022-09-20T11:24:24;12.40;95.10
947;DHT22;460;48.734;9.152;2022-09-20T11:26:55;12.50;95.30
947;DHT22;460;48.734;9.152;2022-09-20T11:29:27;12.60;95.10
947;DHT22;460;48.734;9.152;2022-09-20T11:32:00;12.60;93.70
947;DHT22;460;48.734;9.152;2022-09-20T11:34:30;12.70;94.50
947;DHT22;460;48.734;9.152;2022-09-20T11:37:01;13.00;92.40
947;DHT22;460;48.734;9.152;2022-09-20T11:39:33;13.00;92.40
947;DHT22;460;48.734;9.152;2022-09-20T11:42:03;13.40;93.80
947;DHT22;460;48.734;9.152;2022-09-20T11:44:31;13.10;92.50
947;DHT22;460;48.734;9.152;2022-09-20T11:47:02;13.20;92.00
947;DHT22;460;48.734;9.152;2022-09-20T11:49:37;13.20;91.90
947;DHT22;460;48.734;9.152;2022-09-20T11:52:18;13.20;90.90
947;DHT22;460;48.734;9.152;2022-09-20T11:55:00;13.10;91.70
947;DHT22;460;48.734;9.152;2022-09-20T11:57:29;12.80;93.40
947;DHT22;460;48.734;9.152;2022-09-20T11:59:59;13.00;92.60
947;DHT22;460;48.734;9.152;2022-09-20T12:02:32;13.00;92.80
947;DHT22;460;48.734;9.152;2022-09-20T12:05:00;13.00;92.00
947;DHT22;460;48.734;9.152;2022-09-20T12:07:32;12.90;90.70
947;DHT22;460;48.734;9.152;2022-09-20T12:10:02;12.80;90.00
947;DHT22;460;48.734;9.152;2022-09-20T12:12:36;12.80;90.20
947;DHT22;460;48.734;9.152;2022-09-20T12:15:07;12.90;88.10
947;DHT22;460;48.734;9.152;2022-09-20T12:18:12;13.40;86.80
947;DHT22;460;48.734;9.152;2022-09-20T12:21:10;13.20;84.20
947;DHT22;460;48.734;9.152;2022-09-20T12:26:46;13.60;87.40
947;DHT22;460;48.734;9.152;2022-09-20T12:32:44;13.60;87.40
947;DHT22;460;48.734;9.152;2022-09-20T12:41:19;13.70;87.60
947;DHT22;460;48.734;9.152;2022-09-20T12:44:02;13.50;84.00
947;DHT22;460;48.734;9.152;2022-09-20T12:46:32;13.50;83.90
947;DHT22;460;48.734;9.152;2022-09-20T12:52:25;13.60;88.10
947;DHT22;460;48.734;9.152;2022-09-20T12:55:12;13.60;84.70
947;DHT22;460;48.734;9.152;2022-09-20T12:57:52;13.60;86.00
947;DHT22;460;48.734;9.152;2022-09-20T13:00:31;13.70;85.50
947;DHT22;460;48.734;9.152;2022-09-20T13:03:10;13.80;85.20
947;DHT22;460;48.734;9.152;2022-09-20T13:05:40;14.20;87.90
947;DHT22;460;48.734;9.152;2022-09-20T13:08:15;14.00;86.40
947;DHT22;460;48.734;9.152;2022-09-20T13:10:46;14.00;85.00
947;DHT22;460;48.734;9.152;2022-09-20T13:13:26;14.00;86.00
947;DHT22;460;48.734;9.152;2022-09-20T13:15:54;13.80;83.50
947;DHT22;460;48.734;9.152;2022-09-20T13:18:24;11.60;84.40
947;DHT22;460;48.734;9.152;2022-09-20T13:20:52;13.80;87.20
947;DHT22;460;48.734;9.152;2022-09-20T13:23:24;13.90;87.20
947;DHT22;460;48.734;9.152;2022-09-20T13:25:54;14.10;87.60
947;DHT22;460;48.734;9.152;2022-09-20T13:28:33;14.00;84.80
947;DHT22;460;48.734;9.152;2022-09-20T13:31:32;14.30;85.60
947;DHT22;460;48.734;9.152;2022-09-20T13:34:17;14.10;84.60
947;DHT22;460;48.734;9.152;2022-09-20T13:36:45;14.10;84.30
947;DHT22;460;48.734;9.152;2022-09-20T13:39:27;14.10;84.30
947;DHT22;460;48.734;9.152;2022-09-20T13:41:59;14.10;84.10
947;DHT22;460;48.734;9.152;2022-09-20T13:44:32;14.10;84.60
947;DHT22;460;48.734;9.152;2022-09-20T13:47:26;14.00;85.60
947;DHT22;460;48.734;9.152;2022-09-20T13:50:07;13.90;85.20
947;DHT22;460;48.734;9.152;2022-09-20T13:52:43;13.90;88.10
947;DHT22;460;48.734;9.152;2022-09-20T13:55:26;14.10;90.00
947;DHT22;460;48.734;9.152;2022-09-20T13:58:00;13.80;85.40
947;DHT22;460;48.734;9.152;2022-09-20T14:00:29;13.80;84.90
947;DHT22;460;48.734;9.152;2022-09-20T14:02:59;13.70;85.20
947;DHT22;460;48.734;9.152;2022-09-20T14:05:28;13.50;86.90
947;DHT22;460;48.734;9.152;2022-09-20T14:07:58;13.60;86.80
947;DHT22;460;48.734;9.152;2022-09-20T14:10:29;13.60;87.40
947;DHT22;460;48.734;9.152;2022-09-20T14:12:59;13.40;88.50
947;DHT22;460;48.734;9.152;2022-09-20T14:15:30;13.40;88.50
947;DHT22;460;48.734;9.152;2022-09-20T14:18:06;13.50;90.40
947;DHT22;460;48.734;9.152;2022-09-20T14:25:30;13.50;91.80
947;DHT22;460;48.734;9.152;2022-09-20T14:28:17;13.00;91.00
947;DHT22;460;48.734;9.152;2022-09-20T14:30:45;13.10;90.90
947;DHT22;460;48.734;9.152;2022-09-20T14:33:18;12.90;91.10
947;DHT22;460;48.734;9.152;2022-09-20T14:35:49;12.90;90.30
947;DHT22;460;48.734;9.152;2022-09-20T14:38:23;12.80;90.80
947;DHT22;460;48.734;9.152;2022-09-20T14:40:50;12.70;90.50
947;DHT22;460;48.734;9.152;2022-09-20T14:43:28;12.80;91.40
947;DHT22;460;48.734;9.152;2022-09-20T14:45:58;12.40;90.80
947;DHT22;460;48.734;9.152;2022-09-20T14:48:35;12.60;90.50
947;DHT22;460;48.734;9.152;2022-09-20T14:51:18;13.00;91.90
947;DHT22;460;48.734;9.152;2022-09-20T14:53:49;12.70;91.20
947;DHT22;460;48.734;9.152;2022-09-20T14:56:24;12.70;92.10
947;DHT22;460;48.734;9.152;2022-09-20T14:59:17;12.40;91.60
947;DHT22;460;48.734;9.152;2022-09-20T15:01:52;12.70;91.50
947;DHT22;460;48.734;9.152;2022-09-20T15:04:23;12.80;91.40
947;DHT22;460;48.734;9.152;2022-09-20T15:06:51;12.60;90.00
947;DHT22;460;48.734;9.152;2022-09-20T15:09:19;12.70;88.20
947;DHT22;460;48.734;9.152;2022-09-20T15:11:58;12.80;87.60
947;DHT22;460;48.734;9.152;2022-09-20T15:14:25;12.80;86.80
947;DHT22;460;48.734;9.152;2022-09-20T15:16:51;12.90;89.00
947;DHT22;460;48.734;9.152;2022-09-20T15:19:18;13.00;90.00
947;DHT22;460;48.734;9.152;2022-09-20T15:21:46;12.90;87.40
947;DHT22;460;48.734;9.152;2022-09-20T15:24:13;13.00;89.80
947;DHT22;460;48.734;9.152;2022-09-20T15:26:42;13.20;88.90
947;DHT22;460;48.734;9.152;2022-09-20T15:29:13;13.30;86.80
947;DHT22;460;48.734;9.152;2022-09-20T15:31:40;13.30;84.90
947;DHT22;460;48.734;9.152;2022-09-20T15:34:07;13.40;84.10
947;DHT22;460;48.734;9.152;2022-09-20T15:36:34;13.40;83.10
947;DHT22;460;48.734;9.152;2022-09-20T15:39:03;13.40;83.00
947;DHT22;460;48.734;9.152;2022-09-20T15:41:30;13.40;82.90
947;DHT22;460;48.734;9.152;2022-09-20T15:43:57;13.50;84.20
947;DHT22;460;48.734;9.152;2022-09-20T15:46:25;13.40;84.50
947;DHT22;460;48.734;9.152;2022-09-20T15:48:53;13.30;83.80
947;DHT22;460;48.734;9.152;2022-09-20T15:51:21;13.30;84.40
947;DHT22;460;48.734;9.152;2022-09-20T15:53:55;13.30;83.70
947;DHT22;460;48.734;9.152;2022-09-20T15:56:25;13.20;85.50
947;DHT22;460;48.734;9.152;2022-09-20T15:58:54;13.10;84.70
947;DHT22;460;48.734;9.152;2022-09-20T16:01:24;13.00;87.40
947;DHT22;460;48.734;9.152;2022-09-20T16:03:51;13.00;87.80
947;DHT22;460;48.734;9.152;2022-09-20T16:06:19;12.90;86.90
947;DHT22;460;48.734;9.152;2022-09-20T16:08:46;12.80;85.70
947;DHT22;460;48.734;9.152;2022-09-20T16:11:14;12.80;89.00
947;DHT22;460;48.734;9.152;2022-09-20T16:13:44;12.70;87.10
947;DHT22;460;48.734;9.152;2022-09-20T16:16:11;12.70;88.60
947;DHT22;460;48.734;9.152;2022-09-20T16:18:40;12.60;87.90
947;DHT22;460;48.734;9.152;2022-09-20T16:23:53;12.40;89.30
947;DHT22;460;48.734;9.152;2022-09-20T16:26:21;12.30;90.20
947;DHT22;460;48.734;9.152;2022-09-20T16:28:50;12.20;89.10
947;DHT22;460;48.734;9.152;2022-09-20T16:31:31;12.20;90.30
947;DHT22;460;48.734;9.152;2022-09-20T16:33:59;12.10;90.00
947;DHT22;460;48.734;9.152;2022-09-20T16:36:27;12.10;91.40
947;DHT22;460;48.734;9.152;2022-09-20T16:38:54;12.00;90.20
947;DHT22;460;48.734;9.152;2022-09-20T16:41:21;12.00;90.20
947;DHT22;460;48.734;9.152;2022-09-20T16:43:51;11.80;90.80
947;DHT22;460;48.734;9.152;2022-09-20T16:46:18;11.90;91.60
947;DHT22;460;48.734;9.152;2022-09-20T16:48:45;11.80;91.70
947;DHT22;460;48.734;9.152;2022-09-20T16:51:14;11.70;92.50
947;DHT22;460;48.734;9.152;2022-09-20T16:53:41;11.60;92.70
947;DHT22;460;48.734;9.152;2022-09-20T16:56:21;11.50;91.70
947;DHT22;460;48.734;9.152;2022-09-20T16:58:50;11.50;92.50
947;DHT22;460;48.734;9.152;2022-09-20T17:01:17;11.40;92.80
947;DHT22;460;48.734;9.152;2022-09-20T17:03:45;11.50;92.60
947;DHT22;460;48.734;9.152;2022-09-20T17:06:13;11.40;93.50
947;DHT22;460;48.734;9.152;2022-09-20T17:08:41;11.30;94.00
947;DHT22;460;48.734;9.152;2022-09-20T17:11:11;11.30;93.00
947;DHT22;460;48.734;9.152;2022-09-20T17:13:40;11.30;93.40
947;DHT22;460;48.734;9.152;2022-09-20T17:16:10;11.40;94.20
947;DHT22;460;48.734;9.152;2022-09-20T17:18:38;11.30;94.80
947;DHT22;460;48.734;9.152;2022-09-20T17:21:08;11.20;94.90
947;DHT22;460;48.734;9.152;2022-09-20T17:23:37;11.20;94.10
947;DHT22;460;48.734;9.152;2022-09-20T17:26:09;11.20;95.10
947;DHT22;460;48.734;9.152;2022-09-20T17:28:40;11.20;95.00
947;DHT22;460;48.734;9.152;2022-09-20T17:31:10;11.20;95.30
947;DHT22;460;48.734;9.152;2022-09-20T17:33:38;11.10;95.70
947;DHT22;460;48.734;9.152;2022-09-20T17:36:06;11.20;96.00
947;DHT22;460;48.734;9.152;2022-09-20T17:38:34;11.10;96.20
947;DHT22;460;48.734;9.152;2022-09-20T17:41:05;11.00;96.10
947;DHT22;460;48.734;9.152;2022-09-20T17:43:33;11.00;96.30
947;DHT22;460;48.734;9.152;2022-09-20T17:46:11;11.00;97.00
947;DHT22;460;48.734;9.152;2022-09-20T17:48:39;10.90;97.10
947;DHT22;460;48.734;9.152;2022-09-20T17:51:06;10.90;97.80
947;DHT22;460;48.734;9.152;2022-09-20T17:53:34;10.90;98.00
947;DHT22;460;48.734;9.152;2022-09-20T17:56:02;10.80;98.00
947;DHT22;460;48.734;9.152;2022-09-20T17:58:29;10.70;98.30
947;DHT22;460;48.734;9.152;2022-09-20T18:01:03;10.70;98.10
947;DHT22;460;48.734;9.152;2022-09-20T18:03:35;10.70;98.40
947;DHT22;460;48.734;9.152;2022-09-20T18:06:13;10.70;98.50
947;DHT22;460;48.734;9.152;2022-09-20T18:08:43;10.60;98.50
947;DHT22;460;48.734;9.152;2022-09-20T18:11:11;10.60;99.00
947;DHT22;460;48.734;9.152;2022-09-20T18:13:38;10.40;98.60
947;DHT22;460;48.734;9.152;2022-09-20T18:16:07;10.40;99.00
947;DHT22;460;48.734;9.152;2022-09-20T18:18:36;10.30;98.90
947;DHT22;460;48.734;9.152;2022-09-20T18:21:11;10.30;99.50
947;DHT22;460;48.734;9.152;2022-09-20T18:23:38;10.30;99.40
947;DHT22;460;48.734;9.152;2022-09-20T18:26:07;10.30;99.50
947;DHT22;460;48.734;9.152;2022-09-20T18:28:54;10.20;99.50
947;DHT22;460;48.734;9.152;2022-09-20T18:31:22;10.20;99.90